sensor_id;sensor_type;location;lat;lon;timestamp;P1;durP1;ratioP1;P2;durP2;ratioP2
14348;SDS011;7258;50.376;8.742;2023-12-29T00:01:41;6.23;;;5.63;;
14348;SDS011;7258;50.376;8.742;2023-12-29T00:03:43;5.87;;;5.33;;
14348;SDS011;7258;50.376;8.742;2023-12-29T00:05:47;6.23;;;5.70;;
14348;SDS011;7258;50.376;8.742;2023-12-29T00:07:50;6.43;;;5.73;;
14348;SDS011;7258;50.376;8.742;2023-12-29T00:09:54;6.37;;;5.87;;
14348;SDS011;7258;50.376;8.742;2023-12-29T00:11:57;6.60;;;6.00;;
14348;SDS011;7258;50.376;8.742;2023-12-29T00:14:01;6.97;;;6.37;;
14348;SDS011;7258;50.376;8.742;2023-12-29T00:16:04;6.63;;;6.03;;
14348;SDS011;7258;50.376;8.742;2023-12-29T00:18:07;6.40;;;5.80;;
14348;SDS011;7258;50.376;8.742;2023-12-29T00:20:10;6.60;;;5.90;;
14348;SDS011;7258;50.376;8.742;2023-12-29T00:22:21;6.33;;;5.73;;
14348;SDS011;7258;50.376;8.742;2023-12-29T00:24:26;6.50;;;5.90;;
14348;SDS011;7258;50.376;8.742;2023-12-29T00:26:31;7.03;;;6.33;;
14348;SDS011;7258;50.376;8.742;2023-12-29T00:28:34;6.60;;;5.87;;
14348;SDS011;7258;50.376;8.742;2023-12-29T00:30:38;6.40;;;5.73;;
14348;SDS011;7258;50.376;8.742;2023-12-29T00:33:00;6.47;;;5.87;;
14348;SDS011;7258;50.376;8.742;2023-12-29T00:35:04;6.90;;;6.30;;
14348;SDS011;7258;50.376;8.742;2023-12-29T00:37:06;5.93;;;5.43;;
14348;SDS011;7258;50.376;8.742;2023-12-29T00:39:10;6.10;;;5.60;;
14348;SDS011;7258;50.376;8.742;2023-12-29T00:41:13;5.60;;;5.10;;
14348;SDS011;7258;50.376;8.742;2023-12-29T00:43:18;5.03;;;4.63;;
14348;SDS011;7258;50.376;8.742;2023-12-29T00:45:21;4.70;;;4.30;;
14348;SDS011;7258;50.376;8.742;2023-12-29T00:47:24;5.00;;;4.53;;
14348;SDS011;7258;50.376;8.742;2023-12-29T00:49:27;4.60;;;4.20;;
14348;SDS011;7258;50.376;8.742;2023-12-29T00:51:30;6.30;;;4.87;;
14348;SDS011;7258;50.376;8.742;2023-12-29T00:53:34;4.77;;;4.37;;
14348;SDS011;7258;50.376;8.742;2023-12-29T00:55:37;5.40;;;5.00;;
14348;SDS011;7258;50.376;8.742;2023-12-29T00:57:40;5.17;;;4.77;;
14348;SDS011;7258;50.376;8.742;2023-12-29T00:59:46;6.10;;;4.80;;
14348;SDS011;7258;50.376;8.742;2023-12-29T01:01:49;5.53;;;5.03;;
14348;SDS011;7258;50.376;8.742;2023-12-29T01:03:53;4.87;;;4.47;;
14348;SDS011;7258;50.376;8.742;2023-12-29T01:05:56;5.30;;;4.77;;
14348;SDS011;7258;50.376;8.742;2023-12-29T01:07:59;5.40;;;4.90;;
14348;SDS011;7258;50.376;8.742;2023-12-29T01:10:03;5.73;;;5.20;;
14348;SDS011;7258;50.376;8.742;2023-12-29T01:12:06;5.30;;;4.90;;
14348;SDS011;7258;50.376;8.742;2023-12-29T01:14:10;5.70;;;5.20;;
14348;SDS011;7258;50.376;8.742;2023-12-29T01:16:14;5.57;;;5.17;;
14348;SDS011;7258;50.376;8.742;2023-12-29T01:18:18;5.40;;;4.90;;
14348;SDS011;7258;50.376;8.742;2023-12-29T01:20:21;5.63;;;5.13;;
14348;SDS011;7258;50.376;8.742;2023-12-29T01:22:24;5.07;;;4.57;;
14348;SDS011;7258;50.376;8.742;2023-12-29T01:24:26;5.03;;;4.57;;
14348;SDS011;7258;50.376;8.742;2023-12-29T01:26:42;4.87;;;4.47;;
14348;SDS011;7258;50.376;8.742;2023-12-29T01:28:46;3.97;;;3.67;;
14348;SDS011;7258;50.376;8.742;2023-12-29T01:30:49;5.27;;;4.03;;
14348;SDS011;7258;50.376;8.742;2023-12-29T01:32:52;6.57;;;3.90;;
14348;SDS011;7258;50.376;8.742;2023-12-29T01:34:55;3.87;;;3.50;;
14348;SDS011;7258;50.376;8.742;2023-12-29T01:36:59;4.43;;;3.30;;
14348;SDS011;7258;50.376;8.742;2023-12-29T01:39:02;3.40;;;3.10;;
14348;SDS011;7258;50.376;8.742;2023-12-29T01:41:05;3.40;;;3.13;;
14348;SDS011;7258;50.376;8.742;2023-12-29T01:43:08;3.60;;;3.30;;
14348;SDS011;7258;50.376;8.742;2023-12-29T01:45:15;4.03;;;3.30;;
14348;SDS011;7258;50.376;8.742;2023-12-29T01:47:23;3.10;;;2.90;;
14348;SDS011;7258;50.376;8.742;2023-12-29T01:49:27;3.73;;;3.10;;
14348;SDS011;7258;50.376;8.742;2023-12-29T01:51:31;4.60;;;3.37;;
14348;SDS011;7258;50.376;8.742;2023-12-29T01:53:34;3.40;;;3.10;;
14348;SDS011;7258;50.376;8.742;2023-12-29T01:55:48;4.00;;;3.60;;
14348;SDS011;7258;50.376;8.742;2023-12-29T01:57:51;4.00;;;3.60;;
14348;SDS011;7258;50.376;8.742;2023-12-29T01:59:55;4.60;;;3.03;;
14348;SDS011;7258;50.376;8.742;2023-12-29T02:01:57;4.20;;;3.63;;
14348;SDS011;7258;50.376;8.742;2023-12-29T02:04:01;5.10;;;3.07;;
14348;SDS011;7258;50.376;8.742;2023-12-29T02:06:04;3.50;;;3.20;;
14348;SDS011;7258;50.376;8.742;2023-12-29T02:08:09;3.70;;;3.40;;
14348;SDS011;7258;50.376;8.742;2023-12-29T02:10:12;4.93;;;3.70;;
14348;SDS011;7258;50.376;8.742;2023-12-29T02:12:17;4.20;;;3.70;;
14348;SDS011;7258;50.376;8.742;2023-12-29T02:14:20;3.67;;;3.37;;
14348;SDS011;7258;50.376;8.742;2023-12-29T02:16:25;3.87;;;3.47;;
14348;SDS011;7258;50.376;8.742;2023-12-29T02:18:29;3.40;;;3.00;;
14348;SDS011;7258;50.376;8.742;2023-12-29T02:20:33;3.43;;;3.13;;
14348;SDS011;7258;50.376;8.742;2023-12-29T02:22:38;4.67;;;3.23;;
14348;SDS011;7258;50.376;8.742;2023-12-29T02:24:44;3.73;;;3.20;;
14348;SDS011;7258;50.376;8.742;2023-12-29T02:26:53;3.30;;;3.00;;
14348;SDS011;7258;50.376;8.742;2023-12-29T02:29:01;3.67;;;2.80;;
14348;SDS011;7258;50.376;8.742;2023-12-29T02:31:07;3.23;;;2.93;;
14348;SDS011;7258;50.376;8.742;2023-12-29T02:33:13;3.03;;;2.67;;
14348;SDS011;7258;50.376;8.742;2023-12-29T02:35:19;3.00;;;2.70;;
14348;SDS011;7258;50.376;8.742;2023-12-29T02:37:22;3.23;;;2.80;;
14348;SDS011;7258;50.376;8.742;2023-12-29T02:39:26;3.87;;;3.07;;
14348;SDS011;7258;50.376;8.742;2023-12-29T02:41:30;3.87;;;3.20;;
14348;SDS011;7258;50.376;8.742;2023-12-29T02:43:34;4.03;;;3.47;;
14348;SDS011;7258;50.376;8.742;2023-12-29T02:45:37;3.50;;;3.20;;
14348;SDS011;7258;50.376;8.742;2023-12-29T02:47:40;3.97;;;3.40;;
14348;SDS011;7258;50.376;8.742;2023-12-29T02:49:44;4.40;;;3.43;;
14348;SDS011;7258;50.376;8.742;2023-12-29T02:51:47;3.10;;;2.90;;
14348;SDS011;7258;50.376;8.742;2023-12-29T02:53:51;3.27;;;2.97;;
14348;SDS011;7258;50.376;8.742;2023-12-29T02:55:54;3.47;;;3.17;;
14348;SDS011;7258;50.376;8.742;2023-12-29T02:57:59;4.90;;;3.00;;
14348;SDS011;7258;50.376;8.742;2023-12-29T03:00:03;3.60;;;2.80;;
14348;SDS011;7258;50.376;8.742;2023-12-29T03:02:06;3.03;;;2.83;;
14348;SDS011;7258;50.376;8.742;2023-12-29T03:04:09;4.37;;;2.70;;
14348;SDS011;7258;50.376;8.742;2023-12-29T03:06:13;3.27;;;2.90;;
14348;SDS011;7258;50.376;8.742;2023-12-29T03:08:16;3.13;;;2.80;;
14348;SDS011;7258;50.376;8.742;2023-12-29T03:10:19;3.20;;;2.90;;
14348;SDS011;7258;50.376;8.742;2023-12-29T03:12:22;2.83;;;2.63;;
14348;SDS011;7258;50.376;8.742;2023-12-29T03:14:26;2.90;;;2.60;;
14348;SDS011;7258;50.376;8.742;2023-12-29T03:16:29;2.73;;;2.43;;
14348;SDS011;7258;50.376;8.742;2023-12-29T03:18:32;5.50;;;2.70;;
14348;SDS011;7258;50.376;8.742;2023-12-29T03:20:39;4.17;;;2.77;;
14348;SDS011;7258;50.376;8.742;2023-12-29T03:22:43;3.43;;;2.80;;
14348;SDS011;7258;50.376;8.742;2023-12-29T03:24:46;2.87;;;2.60;;
14348;SDS011;7258;50.376;8.742;2023-12-29T03:26:50;3.47;;;2.37;;
14348;SDS011;7258;50.376;8.742;2023-12-29T03:28:53;3.00;;;2.70;;
14348;SDS011;7258;50.376;8.742;2023-12-29T03:30:58;5.40;;;2.40;;
14348;SDS011;7258;50.376;8.742;2023-12-29T03:33:01;3.00;;;2.70;;
14348;SDS011;7258;50.376;8.742;2023-12-29T03:35:07;2.93;;;2.50;;
14348;SDS011;7258;50.376;8.742;2023-12-29T03:37:10;3.60;;;2.47;;
14348;SDS011;7258;50.376;8.742;2023-12-29T03:39:13;2.83;;;2.57;;
14348;SDS011;7258;50.376;8.742;2023-12-29T03:41:17;2.73;;;2.30;;
14348;SDS011;7258;50.376;8.742;2023-12-29T03:43:20;3.97;;;2.50;;
14348;SDS011;7258;50.376;8.742;2023-12-29T03:45:23;2.70;;;2.47;;
14348;SDS011;7258;50.376;8.742;2023-12-29T03:47:26;2.60;;;2.40;;
14348;SDS011;7258;50.376;8.742;2023-12-29T03:49:31;3.30;;;2.57;;
14348;SDS011;7258;50.376;8.742;2023-12-29T03:51:35;3.87;;;2.90;;
14348;SDS011;7258;50.376;8.742;2023-12-29T03:53:38;4.63;;;2.40;;
14348;SDS011;7258;50.376;8.742;2023-12-29T03:55:42;4.10;;;2.80;;
14348;SDS011;7258;50.376;8.742;2023-12-29T03:57:45;3.53;;;2.70;;
14348;SDS011;7258;50.376;8.742;2023-12-29T03:59:48;4.03;;;2.50;;
14348;SDS011;7258;50.376;8.742;2023-12-29T04:01:51;4.50;;;2.43;;
14348;SDS011;7258;50.376;8.742;2023-12-29T04:03:57;3.43;;;2.50;;
14348;SDS011;7258;50.376;8.742;2023-12-29T04:06:00;3.37;;;2.20;;
14348;SDS011;7258;50.376;8.742;2023-12-29T04:08:04;5.53;;;2.60;;
14348;SDS011;7258;50.376;8.742;2023-12-29T04:10:07;2.90;;;2.50;;
14348;SDS011;7258;50.376;8.742;2023-12-29T04:12:10;3.30;;;2.23;;
14348;SDS011;7258;50.376;8.742;2023-12-29T04:14:14;3.13;;;2.60;;
14348;SDS011;7258;50.376;8.742;2023-12-29T04:16:17;3.50;;;2.20;;
14348;SDS011;7258;50.376;8.742;2023-12-29T04:18:21;4.27;;;2.00;;
14348;SDS011;7258;50.376;8.742;2023-12-29T04:20:25;4.20;;;2.40;;
14348;SDS011;7258;50.376;8.742;2023-12-29T04:22:28;4.30;;;2.20;;
14348;SDS011;7258;50.376;8.742;2023-12-29T04:24:30;3.20;;;2.13;;
14348;SDS011;7258;50.376;8.742;2023-12-29T04:26:35;3.60;;;2.40;;
14348;SDS011;7258;50.376;8.742;2023-12-29T04:28:38;2.60;;;2.23;;
14348;SDS011;7258;50.376;8.742;2023-12-29T04:30:41;4.03;;;2.00;;
14348;SDS011;7258;50.376;8.742;2023-12-29T04:32:45;2.73;;;2.00;;
14348;SDS011;7258;50.376;8.742;2023-12-29T04:34:48;2.63;;;2.17;;
14348;SDS011;7258;50.376;8.742;2023-12-29T04:36:52;3.73;;;2.20;;
14348;SDS011;7258;50.376;8.742;2023-12-29T04:38:55;3.70;;;2.40;;
14348;SDS011;7258;50.376;8.742;2023-12-29T04:40:58;5.40;;;2.30;;
14348;SDS011;7258;50.376;8.742;2023-12-29T04:43:02;3.17;;;2.13;;
14348;SDS011;7258;50.376;8.742;2023-12-29T04:45:05;2.63;;;2.23;;
14348;SDS011;7258;50.376;8.742;2023-12-29T04:47:09;4.97;;;2.10;;
14348;SDS011;7258;50.376;8.742;2023-12-29T04:49:12;3.30;;;2.07;;
14348;SDS011;7258;50.376;8.742;2023-12-29T04:51:14;3.90;;;2.30;;
14348;SDS011;7258;50.376;8.742;2023-12-29T04:53:18;4.17;;;2.10;;
14348;SDS011;7258;50.376;8.742;2023-12-29T04:55:22;4.30;;;2.80;;
14348;SDS011;7258;50.376;8.742;2023-12-29T04:57:25;3.50;;;2.47;;
14348;SDS011;7258;50.376;8.742;2023-12-29T04:59:28;2.20;;;2.10;;
14348;SDS011;7258;50.376;8.742;2023-12-29T05:01:31;4.20;;;2.30;;
14348;SDS011;7258;50.376;8.742;2023-12-29T05:03:33;4.67;;;2.47;;
14348;SDS011;7258;50.376;8.742;2023-12-29T05:05:37;4.30;;;2.03;;
14348;SDS011;7258;50.376;8.742;2023-12-29T05:07:40;4.63;;;2.60;;
14348;SDS011;7258;50.376;8.742;2023-12-29T05:09:44;3.30;;;2.20;;
14348;SDS011;7258;50.376;8.742;2023-12-29T05:11:48;4.93;;;2.40;;
14348;SDS011;7258;50.376;8.742;2023-12-29T05:13:51;5.47;;;2.40;;
14348;SDS011;7258;50.376;8.742;2023-12-29T05:15:54;2.53;;;1.97;;
14348;SDS011;7258;50.376;8.742;2023-12-29T05:17:58;3.33;;;2.37;;
14348;SDS011;7258;50.376;8.742;2023-12-29T05:20:02;3.60;;;2.10;;
14348;SDS011;7258;50.376;8.742;2023-12-29T05:22:05;3.87;;;2.33;;
14348;SDS011;7258;50.376;8.742;2023-12-29T05:24:08;3.33;;;2.10;;
14348;SDS011;7258;50.376;8.742;2023-12-29T05:26:13;4.37;;;2.27;;
14348;SDS011;7258;50.376;8.742;2023-12-29T05:28:15;5.23;;;2.43;;
14348;SDS011;7258;50.376;8.742;2023-12-29T05:30:18;3.53;;;2.20;;
14348;SDS011;7258;50.376;8.742;2023-12-29T05:32:22;2.87;;;2.00;;
14348;SDS011;7258;50.376;8.742;2023-12-29T05:34:25;7.07;;;2.40;;
14348;SDS011;7258;50.376;8.742;2023-12-29T05:36:27;5.93;;;2.10;;
14348;SDS011;7258;50.376;8.742;2023-12-29T05:38:30;3.30;;;2.10;;
14348;SDS011;7258;50.376;8.742;2023-12-29T05:40:34;4.70;;;2.20;;
14348;SDS011;7258;50.376;8.742;2023-12-29T05:42:38;3.53;;;2.17;;
14348;SDS011;7258;50.376;8.742;2023-12-29T05:44:41;5.33;;;2.20;;
14348;SDS011;7258;50.376;8.742;2023-12-29T05:46:45;2.73;;;1.93;;
14348;SDS011;7258;50.376;8.742;2023-12-29T05:48:49;3.77;;;2.53;;
14348;SDS011;7258;50.376;8.742;2023-12-29T05:50:53;2.93;;;1.90;;
14348;SDS011;7258;50.376;8.742;2023-12-29T05:52:56;3.70;;;2.40;;
14348;SDS011;7258;50.376;8.742;2023-12-29T05:55:00;3.60;;;2.00;;
14348;SDS011;7258;50.376;8.742;2023-12-29T05:57:03;3.93;;;2.30;;
14348;SDS011;7258;50.376;8.742;2023-12-29T05:59:07;2.23;;;2.03;;
14348;SDS011;7258;50.376;8.742;2023-12-29T06:01:11;4.27;;;2.40;;
14348;SDS011;7258;50.376;8.742;2023-12-29T06:03:14;3.27;;;2.17;;
14348;SDS011;7258;50.376;8.742;2023-12-29T06:05:17;5.13;;;2.23;;
14348;SDS011;7258;50.376;8.742;2023-12-29T06:07:21;5.67;;;2.10;;
14348;SDS011;7258;50.376;8.742;2023-12-29T06:09:24;3.33;;;2.37;;
14348;SDS011;7258;50.376;8.742;2023-12-29T06:11:27;3.87;;;2.00;;
14348;SDS011;7258;50.376;8.742;2023-12-29T06:13:30;2.47;;;1.63;;
14348;SDS011;7258;50.376;8.742;2023-12-29T06:15:34;3.27;;;2.00;;
14348;SDS011;7258;50.376;8.742;2023-12-29T06:17:38;3.97;;;2.17;;
14348;SDS011;7258;50.376;8.742;2023-12-29T06:19:42;3.03;;;2.10;;
14348;SDS011;7258;50.376;8.742;2023-12-29T06:21:46;3.83;;;2.00;;
14348;SDS011;7258;50.376;8.742;2023-12-29T06:23:49;3.70;;;2.23;;
14348;SDS011;7258;50.376;8.742;2023-12-29T06:25:52;3.23;;;2.00;;
14348;SDS011;7258;50.376;8.742;2023-12-29T06:27:55;3.40;;;1.80;;
14348;SDS011;7258;50.376;8.742;2023-12-29T06:29:58;3.47;;;2.10;;
14348;SDS011;7258;50.376;8.742;2023-12-29T06:32:03;4.07;;;2.10;;
14348;SDS011;7258;50.376;8.742;2023-12-29T06:34:06;4.00;;;1.90;;
14348;SDS011;7258;50.376;8.742;2023-12-29T06:36:09;3.27;;;2.23;;
14348;SDS011;7258;50.376;8.742;2023-12-29T06:38:12;2.17;;;1.80;;
14348;SDS011;7258;50.376;8.742;2023-12-29T06:40:16;3.13;;;1.90;;
14348;SDS011;7258;50.376;8.742;2023-12-29T06:42:19;4.57;;;2.10;;
14348;SDS011;7258;50.376;8.742;2023-12-29T06:44:22;3.73;;;2.23;;
14348;SDS011;7258;50.376;8.742;2023-12-29T06:46:25;3.00;;;2.10;;
14348;SDS011;7258;50.376;8.742;2023-12-29T06:48:30;3.33;;;2.30;;
14348;SDS011;7258;50.376;8.742;2023-12-29T06:50:33;3.83;;;2.10;;
14348;SDS011;7258;50.376;8.742;2023-12-29T06:52:37;4.30;;;2.23;;
14348;SDS011;7258;50.376;8.742;2023-12-29T06:54:40;5.47;;;2.40;;
14348;SDS011;7258;50.376;8.742;2023-12-29T06:56:44;4.60;;;2.30;;
14348;SDS011;7258;50.376;8.742;2023-12-29T06:58:47;3.03;;;1.97;;
14348;SDS011;7258;50.376;8.742;2023-12-29T07:00:51;3.70;;;1.90;;
14348;SDS011;7258;50.376;8.742;2023-12-29T07:02:54;2.10;;;1.93;;
14348;SDS011;7258;50.376;8.742;2023-12-29T07:04:59;2.60;;;1.83;;
14348;SDS011;7258;50.376;8.742;2023-12-29T07:07:01;3.80;;;2.30;;
14348;SDS011;7258;50.376;8.742;2023-12-29T07:09:05;4.80;;;2.40;;
14348;SDS011;7258;50.376;8.742;2023-12-29T07:11:09;3.70;;;2.10;;
14348;SDS011;7258;50.376;8.742;2023-12-29T07:13:13;2.80;;;1.83;;
14348;SDS011;7258;50.376;8.742;2023-12-29T07:15:16;4.73;;;2.00;;
14348;SDS011;7258;50.376;8.742;2023-12-29T07:17:19;2.53;;;1.80;;
14348;SDS011;7258;50.376;8.742;2023-12-29T07:19:22;3.97;;;2.20;;
14348;SDS011;7258;50.376;8.742;2023-12-29T07:21:27;2.93;;;2.13;;
14348;SDS011;7258;50.376;8.742;2023-12-29T07:23:30;5.17;;;2.10;;
14348;SDS011;7258;50.376;8.742;2023-12-29T07:25:34;2.97;;;2.00;;
14348;SDS011;7258;50.376;8.742;2023-12-29T07:27:37;4.53;;;2.60;;
14348;SDS011;7258;50.376;8.742;2023-12-29T07:29:40;4.70;;;2.27;;
14348;SDS011;7258;50.376;8.742;2023-12-29T07:31:43;2.70;;;2.07;;
14348;SDS011;7258;50.376;8.742;2023-12-29T07:33:46;3.93;;;2.60;;
14348;SDS011;7258;50.376;8.742;2023-12-29T07:35:50;3.47;;;2.27;;
14348;SDS011;7258;50.376;8.742;2023-12-29T07:37:54;15.30;;;11.57;;
14348;SDS011;7258;50.376;8.742;2023-12-29T07:39:58;7.67;;;2.80;;
14348;SDS011;7258;50.376;8.742;2023-12-29T07:42:01;3.27;;;2.00;;
14348;SDS011;7258;50.376;8.742;2023-12-29T07:44:07;4.37;;;2.20;;
14348;SDS011;7258;50.376;8.742;2023-12-29T07:46:10;2.67;;;2.10;;
14348;SDS011;7258;50.376;8.742;2023-12-29T07:48:13;3.37;;;2.63;;
14348;SDS011;7258;50.376;8.742;2023-12-29T07:50:16;3.23;;;2.30;;
14348;SDS011;7258;50.376;8.742;2023-12-29T07:52:20;4.67;;;2.83;;
14348;SDS011;7258;50.376;8.742;2023-12-29T07:54:25;3.83;;;2.20;;
14348;SDS011;7258;50.376;8.742;2023-12-29T07:56:28;4.77;;;2.50;;
14348;SDS011;7258;50.376;8.742;2023-12-29T07:58:30;5.33;;;2.53;;
14348;SDS011;7258;50.376;8.742;2023-12-29T08:00:33;3.43;;;2.57;;
14348;SDS011;7258;50.376;8.742;2023-12-29T08:02:37;5.47;;;2.67;;
14348;SDS011;7258;50.376;8.742;2023-12-29T08:04:40;2.90;;;2.43;;
14348;SDS011;7258;50.376;8.742;2023-12-29T08:06:44;6.23;;;2.20;;
14348;SDS011;7258;50.376;8.742;2023-12-29T08:08:46;5.00;;;3.80;;
14348;SDS011;7258;50.376;8.742;2023-12-29T08:10:50;3.63;;;2.63;;
14348;SDS011;7258;50.376;8.742;2023-12-29T08:12:53;6.30;;;2.73;;
14348;SDS011;7258;50.376;8.742;2023-12-29T08:14:56;2.77;;;2.37;;
14348;SDS011;7258;50.376;8.742;2023-12-29T08:16:59;3.80;;;2.30;;
14348;SDS011;7258;50.376;8.742;2023-12-29T08:19:02;3.20;;;2.53;;
14348;SDS011;7258;50.376;8.742;2023-12-29T08:21:04;4.97;;;2.40;;
14348;SDS011;7258;50.376;8.742;2023-12-29T08:23:08;3.90;;;2.10;;
14348;SDS011;7258;50.376;8.742;2023-12-29T08:25:12;3.27;;;2.30;;
14348;SDS011;7258;50.376;8.742;2023-12-29T08:27:22;5.03;;;2.40;;
14348;SDS011;7258;50.376;8.742;2023-12-29T08:29:25;2.47;;;2.20;;
14348;SDS011;7258;50.376;8.742;2023-12-29T08:31:28;4.10;;;2.93;;
14348;SDS011;7258;50.376;8.742;2023-12-29T08:33:32;3.93;;;2.60;;
14348;SDS011;7258;50.376;8.742;2023-12-29T08:35:34;3.63;;;2.30;;
14348;SDS011;7258;50.376;8.742;2023-12-29T08:37:38;4.00;;;2.50;;
14348;SDS011;7258;50.376;8.742;2023-12-29T08:39:41;2.43;;;2.23;;
14348;SDS011;7258;50.376;8.742;2023-12-29T08:41:44;3.47;;;2.30;;
14348;SDS011;7258;50.376;8.742;2023-12-29T08:43:48;5.17;;;2.40;;
14348;SDS011;7258;50.376;8.742;2023-12-29T08:45:52;4.13;;;2.30;;
14348;SDS011;7258;50.376;8.742;2023-12-29T08:47:55;5.00;;;2.60;;
14348;SDS011;7258;50.376;8.742;2023-12-29T08:49:59;4.30;;;2.50;;
14348;SDS011;7258;50.376;8.742;2023-12-29T08:52:03;7.23;;;2.77;;
14348;SDS011;7258;50.376;8.742;2023-12-29T08:54:07;4.10;;;2.50;;
14348;SDS011;7258;50.376;8.742;2023-12-29T08:56:11;3.00;;;2.13;;
14348;SDS011;7258;50.376;8.742;2023-12-29T08:58:14;4.47;;;2.73;;
14348;SDS011;7258;50.376;8.742;2023-12-29T09:00:19;3.70;;;2.37;;
14348;SDS011;7258;50.376;8.742;2023-12-29T09:02:22;3.60;;;2.20;;
14348;SDS011;7258;50.376;8.742;2023-12-29T09:04:26;4.53;;;2.60;;
14348;SDS011;7258;50.376;8.742;2023-12-29T09:06:29;3.80;;;2.40;;
14348;SDS011;7258;50.376;8.742;2023-12-29T09:08:32;5.47;;;2.60;;
14348;SDS011;7258;50.376;8.742;2023-12-29T09:10:36;3.07;;;2.70;;
14348;SDS011;7258;50.376;8.742;2023-12-29T09:12:39;5.27;;;2.33;;
14348;SDS011;7258;50.376;8.742;2023-12-29T09:14:43;2.63;;;2.00;;
14348;SDS011;7258;50.376;8.742;2023-12-29T09:16:47;4.87;;;2.40;;
14348;SDS011;7258;50.376;8.742;2023-12-29T09:18:50;3.67;;;2.33;;
14348;SDS011;7258;50.376;8.742;2023-12-29T09:20:53;3.60;;;2.30;;
14348;SDS011;7258;50.376;8.742;2023-12-29T09:22:57;2.15;;;1.95;;
14348;SDS011;7258;50.376;8.742;2023-12-29T09:25:01;3.00;;;2.10;;
14348;SDS011;7258;50.376;8.742;2023-12-29T09:27:04;2.65;;;2.42;;
14348;SDS011;7258;50.376;8.742;2023-12-29T09:29:07;3.07;;;1.90;;
14348;SDS011;7258;50.376;8.742;2023-12-29T09:31:10;3.53;;;2.37;;
14348;SDS011;7258;50.376;8.742;2023-12-29T09:33:15;3.97;;;2.10;;
14348;SDS011;7258;50.376;8.742;2023-12-29T09:35:18;5.13;;;2.22;;
14348;SDS011;7258;50.376;8.742;2023-12-29T09:37:22;3.60;;;2.20;;
14348;SDS011;7258;50.376;8.742;2023-12-29T09:39:25;3.97;;;2.33;;
14348;SDS011;7258;50.376;8.742;2023-12-29T09:41:29;3.33;;;1.90;;
14348;SDS011;7258;50.376;8.742;2023-12-29T09:43:34;2.60;;;2.00;;
14348;SDS011;7258;50.376;8.742;2023-12-29T09:45:38;3.90;;;2.00;;
14348;SDS011;7258;50.376;8.742;2023-12-29T09:47:42;2.92;;;2.00;;
14348;SDS011;7258;50.376;8.742;2023-12-29T09:49:47;4.93;;;2.40;;
14348;SDS011;7258;50.376;8.742;2023-12-29T09:51:51;3.25;;;2.13;;
14348;SDS011;7258;50.376;8.742;2023-12-29T09:53:54;4.63;;;2.15;;
14348;SDS011;7258;50.376;8.742;2023-12-29T09:55:59;4.07;;;1.85;;
14348;SDS011;7258;50.376;8.742;2023-12-29T09:58:04;2.92;;;1.95;;
14348;SDS011;7258;50.376;8.742;2023-12-29T10:00:10;3.10;;;1.70;;
14348;SDS011;7258;50.376;8.742;2023-12-29T10:02:14;4.07;;;2.10;;
14348;SDS011;7258;50.376;8.742;2023-12-29T10:04:17;3.08;;;1.80;;
14348;SDS011;7258;50.376;8.742;2023-12-29T10:06:23;1.92;;;1.60;;
14348;SDS011;7258;50.376;8.742;2023-12-29T10:08:26;3.55;;;1.98;;
14348;SDS011;7258;50.376;8.742;2023-12-29T10:10:30;2.22;;;1.90;;
14348;SDS011;7258;50.376;8.742;2023-12-29T10:12:34;3.95;;;1.83;;
14348;SDS011;7258;50.376;8.742;2023-12-29T10:14:41;2.45;;;1.92;;
14348;SDS011;7258;50.376;8.742;2023-12-29T10:16:50;5.38;;;1.98;;
14348;SDS011;7258;50.376;8.742;2023-12-29T10:18:58;3.72;;;1.88;;
14348;SDS011;7258;50.376;8.742;2023-12-29T10:21:06;5.40;;;2.10;;
14348;SDS011;7258;50.376;8.742;2023-12-29T10:23:12;2.80;;;2.07;;
14348;SDS011;7258;50.376;8.742;2023-12-29T10:25:19;2.60;;;2.03;;
14348;SDS011;7258;50.376;8.742;2023-12-29T10:27:23;2.70;;;1.93;;
14348;SDS011;7258;50.376;8.742;2023-12-29T10:29:26;3.97;;;2.20;;
14348;SDS011;7258;50.376;8.742;2023-12-29T10:31:29;3.87;;;2.10;;
14348;SDS011;7258;50.376;8.742;2023-12-29T10:33:32;3.07;;;1.70;;
14348;SDS011;7258;50.376;8.742;2023-12-29T10:35:35;5.80;;;2.20;;
14348;SDS011;7258;50.376;8.742;2023-12-29T10:37:40;4.20;;;1.77;;
14348;SDS011;7258;50.376;8.742;2023-12-29T10:39:54;4.00;;;1.80;;
14348;SDS011;7258;50.376;8.742;2023-12-29T10:42:02;3.23;;;1.97;;
14348;SDS011;7258;50.376;8.742;2023-12-29T10:44:06;2.60;;;1.70;;
14348;SDS011;7258;50.376;8.742;2023-12-29T10:46:10;5.70;;;2.20;;
14348;SDS011;7258;50.376;8.742;2023-12-29T10:48:16;3.47;;;2.13;;
14348;SDS011;7258;50.376;8.742;2023-12-29T10:50:25;4.80;;;1.80;;
14348;SDS011;7258;50.376;8.742;2023-12-29T10:52:29;2.57;;;1.83;;
14348;SDS011;7258;50.376;8.742;2023-12-29T10:54:34;3.60;;;1.63;;
14348;SDS011;7258;50.376;8.742;2023-12-29T10:56:38;3.50;;;1.70;;
14348;SDS011;7258;50.376;8.742;2023-12-29T10:58:42;3.38;;;2.00;;
14348;SDS011;7258;50.376;8.742;2023-12-29T11:00:44;3.47;;;2.00;;
14348;SDS011;7258;50.376;8.742;2023-12-29T11:02:53;3.07;;;1.90;;
14348;SDS011;7258;50.376;8.742;2023-12-29T11:05:01;2.00;;;1.53;;
14348;SDS011;7258;50.376;8.742;2023-12-29T11:07:04;2.80;;;1.70;;
14348;SDS011;7258;50.376;8.742;2023-12-29T11:09:07;3.35;;;1.83;;
14348;SDS011;7258;50.376;8.742;2023-12-29T11:11:10;4.20;;;1.87;;
14348;SDS011;7258;50.376;8.742;2023-12-29T11:13:15;3.47;;;1.80;;
14348;SDS011;7258;50.376;8.742;2023-12-29T11:15:21;3.67;;;1.70;;
14348;SDS011;7258;50.376;8.742;2023-12-29T11:17:24;3.20;;;1.67;;
14348;SDS011;7258;50.376;8.742;2023-12-29T11:19:29;3.60;;;1.70;;
14348;SDS011;7258;50.376;8.742;2023-12-29T11:21:32;3.92;;;1.65;;
14348;SDS011;7258;50.376;8.742;2023-12-29T11:23:37;2.08;;;1.50;;
14348;SDS011;7258;50.376;8.742;2023-12-29T11:25:41;3.10;;;1.85;;
14348;SDS011;7258;50.376;8.742;2023-12-29T11:27:46;3.50;;;1.67;;
14348;SDS011;7258;50.376;8.742;2023-12-29T11:29:53;3.95;;;1.55;;
14348;SDS011;7258;50.376;8.742;2023-12-29T11:31:56;3.17;;;1.70;;
14348;SDS011;7258;50.376;8.742;2023-12-29T11:34:02;2.17;;;1.40;;
14348;SDS011;7258;50.376;8.742;2023-12-29T11:36:09;1.77;;;1.45;;
14348;SDS011;7258;50.376;8.742;2023-12-29T11:38:35;3.38;;;1.40;;
14348;SDS011;7258;50.376;8.742;2023-12-29T11:40:44;1.98;;;1.55;;
14348;SDS011;7258;50.376;8.742;2023-12-29T11:42:49;3.75;;;1.55;;
14348;SDS011;7258;50.376;8.742;2023-12-29T11:44:53;5.72;;;1.50;;
14348;SDS011;7258;50.376;8.742;2023-12-29T11:46:57;2.78;;;1.60;;
14348;SDS011;7258;50.376;8.742;2023-12-29T11:49:04;2.75;;;1.42;;
14348;SDS011;7258;50.376;8.742;2023-12-29T11:53:30;2.78;;;1.33;;
14348;SDS011;7258;50.376;8.742;2023-12-29T11:55:34;2.28;;;1.50;;
14348;SDS011;7258;50.376;8.742;2023-12-29T11:57:37;1.83;;;1.60;;
14348;SDS011;7258;50.376;8.742;2023-12-29T11:59:46;1.65;;;1.40;;
14348;SDS011;7258;50.376;8.742;2023-12-29T12:01:51;3.83;;;1.75;;
14348;SDS011;7258;50.376;8.742;2023-12-29T12:03:56;1.80;;;1.40;;
14348;SDS011;7258;50.376;8.742;2023-12-29T12:05:58;3.53;;;1.58;;
14348;SDS011;7258;50.376;8.742;2023-12-29T12:08:05;2.15;;;1.40;;
14348;SDS011;7258;50.376;8.742;2023-12-29T12:12:39;2.38;;;1.38;;
14348;SDS011;7258;50.376;8.742;2023-12-29T12:14:46;3.10;;;1.60;;
14348;SDS011;7258;50.376;8.742;2023-12-29T12:16:51;2.40;;;1.48;;
14348;SDS011;7258;50.376;8.742;2023-12-29T12:18:55;2.33;;;1.50;;
14348;SDS011;7258;50.376;8.742;2023-12-29T12:20:58;2.85;;;1.63;;
14348;SDS011;7258;50.376;8.742;2023-12-29T12:23:03;1.70;;;1.30;;
14348;SDS011;7258;50.376;8.742;2023-12-29T12:25:07;3.00;;;1.73;;
14348;SDS011;7258;50.376;8.742;2023-12-29T12:27:11;1.90;;;1.42;;
14348;SDS011;7258;50.376;8.742;2023-12-29T12:29:14;3.25;;;1.38;;
14348;SDS011;7258;50.376;8.742;2023-12-29T12:31:17;4.20;;;2.10;;
14348;SDS011;7258;50.376;8.742;2023-12-29T12:33:22;3.97;;;1.63;;
14348;SDS011;7258;50.376;8.742;2023-12-29T12:35:26;3.15;;;1.63;;
14348;SDS011;7258;50.376;8.742;2023-12-29T12:37:30;3.35;;;1.65;;
14348;SDS011;7258;50.376;8.742;2023-12-29T12:39:38;2.75;;;1.50;;
14348;SDS011;7258;50.376;8.742;2023-12-29T12:41:41;3.53;;;1.27;;
14348;SDS011;7258;50.376;8.742;2023-12-29T12:43:45;3.10;;;1.40;;